Time;durP1;ratioP1;P1;durP2;ratioP2;P2;SDS_P1;SDS_P2;PMS_P1;PMS_P2;Temp;Humidity;BMP_temperature;BMP_pressure;BME280_temperature;BME280_humidity;BME280_pressure;Samples;Min_cycle;Max_cycle;Signal;HPM_P1;HPM_P2
2021/07/31 00:00:10;;;;;;;4.60;4.20;;;16.40;1.40;;;17.62;100.00;95012.76;646364;212;31600;-72
2021/07/31 00:02:53;;;;;;;4.53;4.07;;;16.20;1.40;;;17.55;100.00;95015.86;645273;212;31588;-71
2021/07/31 00:05:37;;;;;;;5.03;4.53;;;16.20;1.40;;;17.45;100.00;95010.50;646391;212;31572;-70
2021/07/31 00:08:19;;;;;;;5.00;4.32;;;16.20;1.40;;;17.45;100.00;95014.16;645730;212;32223;-72
2021/07/31 00:11:00;;;;;;;4.80;4.40;;;16.30;1.40;;;17.39;100.00;95014.46;647033;212;31805;-72
2021/07/31 00:13:44;;;;;;;6.15;4.57;;;16.30;1.40;;;17.34;100.00;95006.00;645993;213;32613;-71
2021/07/31 00:16:25;;;;;;;4.90;4.40;;;16.30;1.40;;;17.29;100.00;95000.48;619229;226;32124;-70
2021/07/31 00:19:07;;;;;;;5.17;4.70;;;16.20;1.40;;;17.26;100.00;95001.55;647145;212;31678;-71
2021/07/31 00:21:49;;;;;;;5.15;4.65;;;16.00;1.40;;;17.21;100.00;95007.72;646534;212;31648;-71
2021/07/31 00:27:05;;;;;;;6.23;4.90;;;15.80;1.40;;;17.09;100.00;95010.00;647131;216;31563;-70
2021/07/31 00:29:47;;;;;;;5.62;5.03;;;15.70;1.40;;;17.05;100.00;95009.76;647029;216;31563;-70
2021/07/31 00:32:28;;;;;;;5.32;4.82;;;15.70;1.40;;;17.06;100.00;94999.36;645890;216;31576;-69
2021/07/31 00:35:51;;;;;;;5.55;4.68;;;15.70;1.40;;;17.03;100.00;94992.30;646999;216;31639;-70
2021/07/31 00:38:33;;;;;;;5.75;5.25;;;15.70;1.40;;;17.02;100.00;94982.93;646158;216;31547;-70
2021/07/31 00:41:14;;;;;;;5.97;5.15;;;15.80;1.40;;;17.05;100.00;94962.09;636616;212;31709;-70
2021/07/31 00:43:59;;;;;;;5.82;5.20;;;15.80;1.40;;;17.00;100.00;94964.98;646808;216;31572;-72
2021/07/31 00:46:41;;;;;;;6.35;5.28;;;15.90;1.40;;;17.04;100.00;94969.45;646086;216;31787;-72
2021/07/31 00:49:22;;;;;;;5.72;5.12;;;15.90;1.40;;;17.08;100.00;94971.25;646505;213;31672;-70
2021/07/31 00:52:05;;;;;;;6.05;5.45;;;15.80;1.40;;;17.07;100.00;94974.83;647221;216;42202;-71
2021/07/31 00:57:11;;;;;;;6.53;5.93;;;15.90;1.40;;;17.14;100.00;94980.52;646439;216;31594;-70
2021/07/31 00:59:56;;;;;;;6.05;5.53;;;15.90;1.40;;;17.10;100.00;94979.67;646822;212;31536;-71
2021/07/31 01:02:38;;;;;;;5.72;5.20;;;15.90;1.40;;;17.15;100.00;94983.69;645247;212;31576;-71
2021/07/31 01:05:19;;;;;;;6.60;6.00;;;15.90;1.40;;;17.13;100.00;94985.29;647204;216;31576;-71
2021/07/31 01:08:01;;;;;;;6.50;5.70;;;15.90;1.40;;;17.10;100.00;94986.83;631409;220;31676;-71
2021/07/31 01:10:43;;;;;;;5.78;4.93;;;15.90;1.40;;;17.19;100.00;94978.63;646064;216;31602;-71
2021/07/31 01:13:24;;;;;;;5.90;5.30;;;15.90;1.40;;;17.20;100.00;94981.78;646507;216;31563;-69
2021/07/31 01:16:08;;;;;;;5.65;5.15;;;15.90;1.40;;;17.23;100.00;94981.91;646739;216;31564;-71
2021/07/31 01:18:49;;;;;;;5.78;5.12;;;15.90;1.40;;;17.17;100.00;94978.37;645937;212;31601;-71
2021/07/31 01:21:47;;;;;;;6.07;5.45;;;15.90;1.40;;;17.17;100.00;94983.35;647287;216;31556;-72
2021/07/31 01:24:29;;;;;;;6.40;5.80;;;15.90;1.40;;;17.12;100.00;94986.16;646676;212;31901;-71
2021/07/31 01:27:10;;;;;;;6.10;5.50;;;15.90;1.40;;;17.08;100.00;94993.32;647509;212;31583;-70
2021/07/31 01:29:55;;;;;;;6.05;5.43;;;15.90;1.40;;;17.14;100.00;94988.33;646360;212;31814;-70
2021/07/31 01:32:37;;;;;;;6.10;5.50;;;16.00;1.40;;;17.10;100.00;94991.80;646674;212;32187;-70
2021/07/31 01:35:50;;;;;;;;;;;16.10;1.40;;;17.07;100.00;94985.55;653849;216;24845;-70
2021/07/31 01:38:32;;;;;;;;;;;16.10;1.40;;;17.09;100.00;94986.78;653017;212;24803;-70
2021/07/31 01:41:13;;;;;;;;;;;16.10;1.40;;;17.17;100.00;94990.95;643756;216;24855;-70
2021/07/31 01:43:54;;;;;;;;;;;16.00;1.40;;;17.16;100.00;94988.00;652679;212;25139;-69
2021/07/31 01:46:36;;;;;;;;;;;16.00;1.40;;;17.13;100.00;94990.62;649658;215;24884;-70
2021/07/31 01:49:17;;;;;;;;;;;16.00;1.40;;;17.17;100.00;94993.34;652397;216;25001;-71
2021/07/31 01:51:58;;;;;;;;;;;16.10;1.40;;;17.13;100.00;94996.51;653921;212;24807;-72
2021/07/31 01:54:40;;;;;;;;;;;16.10;1.40;;;17.19;100.00;94997.65;653046;216;24811;-71
2021/07/31 01:57:24;;;;;;;;;;;16.10;1.40;;;17.25;100.00;94994.73;648168;217;24734;-72
2021/07/31 02:00:06;;;;;;;;;;;16.10;1.40;;;17.25;100.00;94999.66;652831;212;24811;-72
2021/07/31 02:02:47;;;;;;;;;;;16.10;1.40;;;17.25;100.00;94990.49;654147;216;25199;-71
2021/07/31 02:05:29;;;;;;;;;;;16.20;1.40;;;17.27;100.00;94992.63;653331;216;24818;-71
2021/07/31 02:08:10;;;;;;;;;;;16.20;1.40;;;17.25;100.00;94990.86;652772;212;24815;-71
2021/07/31 02:10:51;;;;;;;;;;;16.20;1.40;;;17.26;100.00;94984.57;653334;212;24819;-70
2021/07/31 02:13:33;;;;;;;;;;;16.20;1.40;;;17.23;100.00;94994.07;653841;216;24883;-71
2021/07/31 02:16:20;;;;;;;;;;;16.20;1.40;;;17.23;100.00;94998.51;622433;226;24861;-70
2021/07/31 02:19:04;;;;;;;;;;;16.20;1.40;;;17.23;100.00;94999.62;652735;212;24732;-71
2021/07/31 02:21:45;;;;;;;;;;;16.20;1.40;;;17.26;100.00;95003.93;653982;216;25212;-71
2021/07/31 02:24:30;;;;;;;;;;;16.20;1.40;;;17.28;100.00;94998.38;653500;212;24732;-71
2021/07/31 02:27:11;;;;;;;;;;;16.20;1.40;;;17.29;100.00;94993.53;652985;212;24828;-71
2021/07/31 02:29:52;;;;;;;;;;;16.20;1.40;;;17.29;100.00;94988.58;653242;216;25080;-70
2021/07/31 02:32:34;;;;;;;;;;;16.30;1.40;;;17.32;100.00;94984.55;652953;212;24824;-71
2021/07/31 02:35:52;;;;;;;6.90;4.90;;;16.20;1.40;;;17.33;100.00;94990.02;631761;221;31806;-71
2021/07/31 02:38:34;;;;;;;7.37;5.40;;;16.20;1.40;;;17.34;100.00;94992.77;647171;212;31660;-71
2021/07/31 02:41:16;;;;;;;5.90;5.30;;;16.20;1.40;;;17.34;100.00;94988.66;636029;212;32670;-71
2021/07/31 02:43:57;;;;;;;5.85;5.25;;;16.20;1.40;;;17.36;100.00;94988.90;647078;216;31822;-73
2021/07/31 02:46:39;;;;;;;6.20;5.60;;;16.20;1.40;;;17.44;100.00;94989.21;646256;216;31601;-72
2021/07/31 02:49:20;;;;;;;8.10;5.15;;;16.20;1.40;;;17.48;100.00;94983.88;646660;216;31558;-72
2021/07/31 02:52:02;;;;;;;5.80;5.20;;;16.20;1.40;;;17.39;100.00;94981.98;645452;216;32086;-72
2021/07/31 02:54:47;;;;;;;6.32;4.95;;;16.20;1.40;;;17.46;100.00;94986.28;646389;212;31559;-71
2021/07/31 02:57:29;;;;;;;5.62;4.75;;;16.20;1.40;;;17.50;100.00;94989.84;644923;212;31572;-72
2021/07/31 03:00:11;;;;;;;5.82;5.22;;;16.10;1.40;;;17.46;100.00;94986.73;645942;216;31606;-73
2021/07/31 03:02:56;;;;;;;5.60;5.10;;;16.10;1.40;;;17.38;100.00;94977.05;646156;216;31574;-71
2021/07/31 03:05:38;;;;;;;5.32;4.90;;;16.20;1.40;;;17.42;100.00;94970.38;646662;212;31554;-71
2021/07/31 03:08:19;;;;;;;5.90;5.30;;;16.10;1.40;;;17.45;100.00;94977.41;617844;226;32175;-70
2021/07/31 03:11:02;;;;;;;6.40;5.07;;;16.00;1.40;;;17.49;100.00;94975.58;648604;216;31545;-71
2021/07/31 03:13:43;;;;;;;6.55;5.90;;;16.00;1.40;;;17.49;100.00;94971.05;645315;212;32170;-70
2021/07/31 03:16:25;;;;;;;5.60;5.07;;;15.90;1.40;;;17.36;100.00;94963.20;647237;212;31634;-72
2021/07/31 03:19:07;;;;;;;6.37;5.43;;;15.90;1.40;;;17.30;100.00;94966.02;646605;216;42227;-71
2021/07/31 03:21:52;;;;;;;5.87;5.28;;;16.00;1.40;;;17.31;100.00;94970.53;646441;212;31685;-71
2021/07/31 03:27:08;;;;;;;5.80;5.30;;;15.90;1.40;;;17.34;100.00;94970.77;646465;212;42303;-71
2021/07/31 03:29:49;;;;;;;6.10;5.40;;;15.90;1.40;;;17.34;100.00;94976.61;645689;212;31573;-71
2021/07/31 03:32:31;;;;;;;6.25;5.65;;;15.90;1.40;;;17.39;100.00;94976.36;645368;216;31582;-72
2021/07/31 03:35:51;;;;;;;5.95;5.30;;;15.90;1.40;;;17.33;100.00;94975.13;648188;216;32135;-72
2021/07/31 03:38:33;;;;;;;5.93;5.32;;;15.90;1.40;;;17.32;100.00;94978.63;645588;216;32184;-72
2021/07/31 03:41:15;;;;;;;5.85;5.35;;;16.00;1.40;;;17.33;100.00;94979.78;636996;216;32453;-71
2021/07/31 03:45:52;;;;;;;6.80;6.15;;;16.10;1.40;;;17.39;100.00;94977.50;646530;216;31599;-71
2021/07/31 03:48:33;;;;;;;5.80;5.30;;;16.10;1.40;;;17.40;100.00;94976.80;646977;212;31571;-71
2021/07/31 03:51:15;;;;;;;6.22;5.30;;;16.10;1.40;;;17.43;100.00;94977.38;645819;216;31563;-71
2021/07/31 03:53:57;;;;;;;6.62;5.20;;;16.20;1.40;;;17.47;100.00;94971.69;646213;212;31556;-71
2021/07/31 03:56:38;;;;;;;7.50;5.47;;;16.10;1.40;;;17.46;100.00;94977.73;647350;216;31712;-71
2021/07/31 03:59:23;;;;;;;7.15;5.60;;;16.10;1.40;;;17.43;100.00;94986.45;646379;216;31555;-72
2021/07/31 04:02:05;;;;;;;6.90;5.60;;;16.10;1.40;;;17.41;100.00;94985.31;647467;216;32152;-71
2021/07/31 04:04:46;;;;;;;6.15;5.60;;;16.10;1.40;;;17.48;100.00;94990.30;646420;212;32371;-71
2021/07/31 04:07:31;;;;;;;6.55;5.40;;;16.10;1.40;;;17.49;100.00;94988.73;646376;216;31565;-72
2021/07/31 04:10:13;;;;;;;6.35;5.80;;;16.20;1.40;;;17.50;100.00;94988.03;645856;216;31830;-71
2021/07/31 04:12:55;;;;;;;6.45;5.75;;;16.30;1.40;;;17.52;100.00;94988.40;646410;216;31642;-72
2021/07/31 04:15:36;;;;;;;6.43;5.82;;;16.30;1.40;;;17.64;100.00;94982.52;647194;212;31603;-73
2021/07/31 04:18:18;;;;;;;6.40;5.25;;;16.30;1.40;;;17.73;100.00;94973.78;645950;212;31576;-73
2021/07/31 04:21:07;;;;;;;5.70;5.20;;;16.30;1.40;;;17.77;100.00;94972.34;648266;216;31584;-81
2021/07/31 04:23:54;;;;;;;7.70;5.70;;;16.40;1.40;;;17.92;100.00;94978.02;647609;216;32066;-73
2021/07/31 04:30:57;;;;;;;6.43;5.50;;;16.40;1.40;;;17.85;100.00;94971.88;647216;216;31593;-71
2021/07/31 04:35:51;;;;;;;5.90;5.40;;;16.40;1.40;;;17.80;100.00;94968.83;617875;222;32198;-71
2021/07/31 04:38:33;;;;;;;6.30;5.70;;;16.40;1.40;;;17.91;100.00;94977.20;646555;216;31674;-72
2021/07/31 04:41:15;;;;;;;5.82;5.30;;;16.50;1.40;;;18.05;100.00;94981.94;636209;216;32231;-72
2021/07/31 04:43:56;;;;;;;6.40;5.80;;;16.50;1.40;;;18.13;100.00;94979.14;647941;212;31676;-71
2021/07/31 04:46:38;;;;;;;5.90;5.40;;;16.60;1.40;;;18.19;100.00;94981.13;646982;216;31686;-71
2021/07/31 04:49:23;;;;;;;9.32;5.80;;;16.70;1.40;;;18.15;100.00;94989.05;646393;216;31583;-71
2021/07/31 04:52:07;;;;;;;5.95;4.90;;;16.80;1.40;;;18.29;100.00;94979.20;646081;213;31593;-73
2021/07/31 04:54:48;;;;;;;5.40;4.90;;;16.90;1.40;;;18.40;100.00;94981.24;645900;212;31754;-71
2021/07/31 04:57:30;;;;;;;5.00;4.60;;;17.00;1.40;;;18.42;100.00;94984.30;646754;212;31566;-71
2021/07/31 05:00:15;;;;;;;5.15;4.65;;;17.10;1.40;;;18.61;100.00;94983.46;646241;216;32097;-71
2021/07/31 05:02:56;;;;;;;5.50;5.00;;;17.20;1.40;;;18.82;100.00;94981.06;645801;216;31556;-71
2021/07/31 05:05:41;;;;;;;6.20;4.68;;;17.30;1.40;;;18.98;100.00;94981.21;629497;220;31563;-73
2021/07/31 05:08:23;;;;;;;6.85;4.60;;;17.40;1.40;;;18.72;100.00;94978.55;647213;216;31575;-71
2021/07/31 05:11:06;;;;;;;5.37;4.90;;;17.40;1.40;;;18.59;100.00;94976.66;646551;216;31743;-71
2021/07/31 05:13:47;;;;;;;6.37;4.80;;;17.40;1.40;;;18.50;100.00;94980.92;645879;212;31659;-71
2021/07/31 05:16:28;;;;;;;7.10;4.70;;;17.30;1.40;;;18.48;100.00;94980.19;646367;216;31654;-71
2021/07/31 05:19:10;;;;;;;4.90;4.50;;;17.30;1.40;;;18.48;100.00;94985.99;645057;212;32085;-72
2021/07/31 05:21:55;;;;;;;4.70;4.30;;;17.30;1.40;;;18.53;100.00;94986.13;647067;212;31721;-71
2021/07/31 05:24:36;;;;;;;4.50;4.10;;;17.40;1.40;;;18.65;100.00;94984.83;646400;212;42194;-72
2021/07/31 05:27:18;;;;;;;5.07;4.68;;;17.50;1.40;;;18.73;100.00;94981.52;646298;216;31562;-71
2021/07/31 05:30:03;;;;;;;5.55;4.18;;;17.60;1.40;;;18.99;100.00;94985.77;646838;216;31780;-71
2021/07/31 05:35:53;;;;;;;4.40;4.00;;;18.10;1.40;;;19.30;100.00;94990.88;644479;216;31762;-72
2021/07/31 05:38:33;;;;;;;4.43;4.03;;;18.20;1.40;;;19.48;100.00;94990.45;646961;216;31590;-71
2021/07/31 05:41:15;;;;;;;4.95;4.45;;;18.30;1.40;;;19.39;100.00;94987.48;636623;212;31712;-72
2021/07/31 05:43:57;;;;;;;4.90;4.50;;;18.20;1.40;;;19.49;100.00;94989.81;644535;212;33814;-72
2021/07/31 05:46:38;;;;;;;4.87;4.35;;;18.40;1.40;;;19.55;100.00;94982.67;645784;216;32129;-71
2021/07/31 05:49:20;;;;;;;4.60;4.20;;;18.30;1.40;;;19.63;100.00;94981.69;645382;216;31748;-72
2021/07/31 05:52:02;;;;;;;4.30;4.00;;;18.40;1.40;;;19.45;100.00;94989.90;646049;216;31855;-72
2021/07/31 05:54:43;;;;;;;4.72;4.32;;;18.30;1.40;;;19.42;100.00;94997.94;646306;212;31657;-71
2021/07/31 05:57:25;;;;;;;4.70;4.10;;;18.20;1.40;;;19.42;100.00;94993.69;646650;216;31671;-72
2021/07/31 06:00:08;;;;;;;4.85;4.45;;;18.20;1.40;;;19.42;100.00;94991.50;618277;225;32002;-71
2021/07/31 06:02:50;;;;;;;4.90;4.30;;;18.20;1.40;;;19.39;100.00;94998.70;648372;216;31574;-72
2021/07/31 06:05:32;;;;;;;4.70;4.10;;;18.20;1.40;;;19.58;100.00;95003.03;618016;222;31921;-72
2021/07/31 06:08:13;;;;;;;4.70;4.30;;;18.30;1.40;;;19.57;100.00;95007.20;646125;212;31566;-72
2021/07/31 06:11:03;;;;;;;4.97;4.55;;;18.30;1.40;;;19.64;100.00;95008.66;645709;212;31506;-72
2021/07/31 06:13:44;;;;;;;4.60;4.20;;;18.40;1.40;;;19.64;100.00;95006.47;619833;226;31944;-72
2021/07/31 06:16:27;;;;;;;4.28;3.97;;;18.40;1.40;;;19.62;100.00;95009.37;646202;212;31623;-72
2021/07/31 06:19:08;;;;;;;4.87;4.37;;;18.40;1.40;;;19.73;100.00;95006.56;620161;222;31905;-71
2021/07/31 06:21:49;;;;;;;4.70;4.15;;;18.50;1.40;;;19.85;100.00;95003.34;618304;225;32590;-72
2021/07/31 06:24:34;;;;;;;6.37;4.60;;;18.60;1.40;;;19.86;100.00;95003.70;645827;216;31897;-71
2021/07/31 06:27:16;;;;;;;5.70;4.30;;;18.70;1.40;;;20.13;100.00;95000.17;645597;212;31653;-72
2021/07/31 06:29:57;;;;;;;5.00;4.60;;;18.80;1.40;;;20.26;100.00;94999.29;647081;216;31664;-70
2021/07/31 06:32:42;;;;;;;4.37;3.92;;;18.80;1.40;;;20.35;100.00;95001.60;645850;216;31605;-72
2021/07/31 06:35:57;;;;;;;4.80;4.30;;;18.70;1.40;;;20.10;100.00;95006.11;645622;212;31612;-71
2021/07/31 06:38:39;;;;;;;4.60;4.20;;;18.60;1.40;;;19.77;100.00;95000.34;646893;215;31666;-71
2021/07/31 06:41:21;;;;;;;4.72;4.32;;;18.50;1.40;;;19.92;100.00;95001.34;636569;212;32557;-71
2021/07/31 06:44:02;;;;;;;4.50;4.10;;;18.60;1.40;;;19.89;100.00;94997.14;647292;216;31612;-71
2021/07/31 06:46:44;;;;;;;4.87;4.37;;;18.70;1.40;;;19.90;100.00;95000.09;645240;216;31978;-71
2021/07/31 06:49:32;;;;;;;4.45;4.05;;;18.80;1.40;;;20.06;100.00;94999.73;646666;216;31562;-71
2021/07/31 06:52:13;;;;;;;4.80;4.40;;;19.00;1.40;;;20.26;100.00;95002.27;646092;216;31544;-70
2021/07/31 06:54:55;;;;;;;5.00;4.60;;;19.10;1.40;;;20.08;100.00;95005.70;647048;212;32217;-70
2021/07/31 06:57:37;;;;;;;4.60;4.20;;;18.90;1.40;;;20.15;100.00;95008.24;631187;220;32221;-70
2021/07/31 07:00:19;;;;;;;4.93;4.43;;;19.00;1.40;;;20.20;100.00;95009.08;647535;213;32091;-70
2021/07/31 07:03:01;;;;;;;4.93;4.30;;;19.00;1.40;;;20.30;100.00;95004.35;646620;212;31591;-71
2021/07/31 07:05:42;;;;;;;4.80;4.40;;;19.10;1.40;;;20.29;100.00;95000.07;646580;212;31589;-70
2021/07/31 07:08:24;;;;;;;5.25;3.80;;;19.10;1.40;;;20.39;100.00;95001.67;645448;212;31570;-71
2021/07/31 07:11:06;;;;;;;5.28;4.45;;;19.20;1.40;;;20.33;100.00;94995.88;646841;216;31569;-71
2021/07/31 07:13:47;;;;;;;5.62;4.53;;;19.10;1.40;;;20.75;99.38;94992.60;646359;212;31568;-72
2021/07/31 07:16:29;;;;;;;5.22;4.28;;;19.50;1.40;;;21.04;97.21;95000.98;646348;212;31576;-70
2021/07/31 07:19:11;;;;;;;5.60;4.40;;;19.80;1.40;;;20.93;96.20;94996.70;646637;216;31553;-70
2021/07/31 07:21:55;;;;;;;5.85;5.22;;;19.60;1.40;;;21.13;97.04;94997.85;620005;226;32127;-71
2021/07/31 07:24:43;;;;;;;5.20;4.70;;;19.80;1.40;;;20.95;96.84;94997.62;640926;216;32046;-71
2021/07/31 07:27:29;;;;;;;6.15;4.87;;;19.50;1.40;;;20.80;98.50;94991.83;646505;216;31540;-73
2021/07/31 07:30:16;;;;;;;6.00;4.55;;;19.50;1.40;;;20.86;100.00;94993.91;619377;226;32525;-71
2021/07/31 07:32:58;;;;;;;5.50;5.00;;;19.40;1.40;;;20.80;98.22;94985.34;646869;216;31718;-71
2021/07/31 07:35:54;;;;;;;5.25;4.75;;;19.40;1.40;;;20.98;97.21;94986.49;646078;216;31916;-72
2021/07/31 07:38:36;;;;;;;4.80;4.40;;;19.50;1.40;;;20.66;97.25;94986.16;646046;212;31527;-71
2021/07/31 07:41:21;;;;;;;4.78;4.37;;;19.50;1.40;;;20.87;98.16;94983.47;636162;212;31731;-71
2021/07/31 07:44:02;;;;;;;4.80;4.30;;;19.80;1.40;;;21.33;94.32;94983.42;647626;216;31580;-71
2021/07/31 07:46:44;;;;;;;4.40;4.00;;;20.00;1.40;;;21.45;92.32;94978.34;646918;213;31540;-71
2021/07/31 07:49:26;;;;;;;5.68;4.60;;;20.00;1.40;;;21.35;92.30;94975.64;630807;221;31664;-70
2021/07/31 07:54:42;;;;;;;4.87;4.35;;;20.10;1.40;;;21.81;91.19;94980.34;646155;216;31580;-72
2021/07/31 07:57:23;;;;;;;4.72;4.30;;;20.60;1.40;;;22.14;87.69;94983.86;645887;216;42205;-71
2021/07/31 08:00:07;;;;;;;4.50;4.10;;;20.50;1.40;;;22.24;87.30;94978.47;647131;216;31690;-71
2021/07/31 08:02:48;;;;;;;3.80;3.50;;;20.50;1.40;;;21.93;83.64;94981.77;646483;216;42274;-71
2021/07/31 08:05:30;;;;;;;3.72;3.35;;;20.40;1.40;;;22.20;82.96;94983.37;646178;216;31630;-70
2021/07/31 08:08:12;;;;;;;5.00;3.70;;;20.60;1.40;;;22.15;80.57;94979.20;646607;216;31624;-71
2021/07/31 08:10:56;;;;;;;3.40;3.10;;;20.70;1.40;;;22.37;82.63;94978.22;646654;212;31787;-71
2021/07/31 08:13:38;;;;;;;3.70;3.40;;;20.90;1.40;;;22.65;80.17;94984.30;646171;216;31893;-71
2021/07/31 08:16:22;;;;;;;3.67;3.37;;;21.10;1.40;;;22.06;80.57;94978.53;645964;216;31917;-71
2021/07/31 08:19:05;;;;;;;6.07;4.43;;;20.50;1.40;;;21.89;83.57;94973.23;632607;221;31837;-71
2021/07/31 08:21:51;;;;;;;4.67;4.27;;;20.60;1.40;;;22.39;82.60;94975.62;646498;216;31704;-71
2021/07/31 08:24:39;;;;;;;4.45;3.50;;;21.00;1.40;;;22.60;82.61;94979.08;645328;216;31608;-71
2021/07/31 08:27:26;;;;;;;3.70;3.40;;;21.10;1.40;;;22.37;81.59;94971.59;647106;216;31602;-71
2021/07/31 08:32:48;;;;;;;3.90;3.60;;;21.30;1.40;;;22.86;80.24;94971.16;646603;216;31603;-72
2021/07/31 08:35:58;;;;;;;3.83;3.43;;;21.50;1.40;;;22.77;76.76;94978.87;645477;212;31591;-72
2021/07/31 08:38:40;;;;;;;3.40;2.95;;;21.50;1.40;;;22.89;76.12;94974.09;647020;212;31596;-71
2021/07/31 08:41:31;;;;;;;3.83;2.90;;;21.90;1.40;;;22.94;76.36;94972.25;635216;212;32662;-71
2021/07/31 08:44:18;;;;;;;3.80;3.17;;;21.70;1.40;;;23.29;75.28;94976.53;646839;216;31611;-71
2021/07/31 08:47:03;;;;;;;3.80;3.40;;;22.30;1.40;;;23.39;71.79;94978.70;616264;227;32147;-71
2021/07/31 08:49:46;;;;;;;3.30;3.00;;;21.90;1.40;;;23.26;72.70;94984.65;619246;226;31969;-70
2021/07/31 08:52:31;;;;;;;3.65;3.00;;;21.90;1.40;;;24.35;71.71;94972.83;646367;216;31693;-70
2021/07/31 08:57:44;;;;;;;3.90;3.50;;;22.70;1.40;;;24.25;71.71;94976.33;646116;216;31741;-70
2021/07/31 09:00:26;;;;;;;4.40;3.70;;;22.20;1.40;;;24.08;72.05;94977.86;646255;216;31573;-72
2021/07/31 09:03:15;;;;;;;4.00;3.60;;;22.20;1.40;;;24.75;71.73;94980.20;647113;216;32269;-71
2021/07/31 09:05:55;;;;;;;3.97;3.65;;;22.80;1.40;;;25.50;69.80;94975.66;646476;216;32296;-71
2021/07/31 09:08:55;;;;;;;4.47;3.30;;;23.30;1.40;;;24.66;65.45;94979.25;646363;216;31690;-72
2021/07/31 09:11:58;;;;;;;3.50;3.20;;;22.60;1.40;;;24.45;69.08;94976.08;646261;216;31661;-72
2021/07/31 09:14:46;;;;;;;3.80;3.40;;;22.50;1.40;;;23.48;71.28;94976.30;646969;216;31553;-72
2021/07/31 09:17:28;;;;;;;3.62;3.30;;;21.90;1.40;;;23.90;72.82;94972.77;645620;212;31596;-71
2021/07/31 09:20:15;;;;;;;3.90;3.50;;;22.60;1.40;;;24.70;67.62;94974.34;646911;212;31554;-71
2021/07/31 09:22:57;;;;;;;3.95;3.40;;;23.10;1.40;;;24.44;67.38;94980.11;647562;216;31563;-71
2021/07/31 09:25:45;;;;;;;3.50;3.20;;;22.30;1.40;;;24.55;68.20;94979.20;644761;216;32264;-72
2021/07/31 09:28:30;;;;;;;5.20;3.60;;;22.10;1.40;;;23.83;68.07;94978.45;646389;212;42386;-72
2021/07/31 09:31:15;;;;;;;4.57;3.40;;;21.80;1.40;;;24.09;69.53;94983.69;645969;212;31943;-71
2021/07/31 09:35:51;;;;;;;3.70;3.40;;;21.40;1.40;;;23.34;73.33;94989.75;647229;216;31638;-71
2021/07/31 09:38:36;;;;;;;4.10;3.10;;;21.20;1.40;;;23.38;73.30;94990.11;646147;216;32148;-71
2021/07/31 09:41:29;;;;;;;3.80;3.50;;;21.20;1.40;;;22.96;74.63;94993.91;609212;222;32064;-72
2021/07/31 09:44:12;;;;;;;5.40;3.90;;;20.90;1.40;;;22.74;77.61;95002.00;647798;212;31755;-72
2021/07/31 09:47:01;;;;;;;4.62;4.25;;;20.70;1.40;;;22.81;77.88;95000.22;645345;212;31697;-71
2021/07/31 09:49:35;;;;;;;3.95;3.65;;;20.80;1.40;;;23.29;75.21;94997.81;619025;225;32107;-71
2021/07/31 09:52:18;;;;;;;4.10;3.80;;;21.40;1.40;;;23.85;71.83;95001.55;647242;212;31717;-72
2021/07/31 09:55:06;;;;;;;4.00;3.53;;;21.80;1.40;;;24.63;67.42;94994.05;645665;212;31916;-72
2021/07/31 09:57:48;;;;;;;3.45;2.90;;;23.60;1.40;;;27.25;61.12;94993.44;647204;213;31579;-70
2021/07/31 10:00:29;;;;;;;3.90;3.50;;;25.90;1.40;;;27.59;58.13;94991.49;646715;212;35356;-71
2021/07/31 10:03:14;;;;;;;3.95;3.00;;;24.40;1.40;;;26.40;57.24;94985.45;645802;216;31560;-70
2021/07/31 10:05:56;;;;;;;3.70;3.00;;;23.20;1.40;;;26.19;59.14;94982.12;646048;216;31558;-70
2021/07/31 10:08:37;;;;;;;4.22;2.80;;;23.60;1.40;;;26.38;58.28;94978.16;647170;212;31662;-72
2021/07/31 10:11:19;;;;;;;3.60;2.90;;;23.80;1.40;;;26.21;60.17;94973.38;646547;216;31551;-71
2021/07/31 10:14:08;;;;;;;3.60;3.30;;;24.50;1.40;;;27.89;54.87;94971.13;618201;226;31917;-71
2021/07/31 10:16:49;;;;;;;2.90;2.70;;;26.50;1.40;;;28.16;53.13;94969.56;646520;212;31642;-71
2021/07/31 10:19:36;;;;;;;3.33;3.03;;;24.80;1.40;;;27.86;54.04;94969.98;646722;212;32184;-72
2021/07/31 10:22:44;;;;;;;3.33;3.03;;;25.00;1.40;;;27.50;54.87;94965.20;645946;216;31577;-72
2021/07/31 10:25:26;;;;;;;3.15;2.85;;;24.50;1.40;;;26.03;60.17;94968.30;647104;216;31563;-71
2021/07/31 10:28:24;;;;;;;3.70;3.40;;;23.10;1.40;;;26.24;58.85;94969.69;645533;212;31603;-71
2021/07/31 10:31:30;;;;;;;3.40;3.10;;;23.00;1.40;;;25.39;57.98;94969.24;646810;216;32131;-71
2021/07/31 10:35:57;;;;;;;3.78;3.10;;;22.30;1.40;;;24.35;63.14;94961.72;645610;216;42325;-72
2021/07/31 10:38:39;;;;;;;3.50;3.20;;;22.50;1.40;;;25.47;62.33;94960.77;646633;216;31579;-71
2021/07/31 10:41:38;;;;;;;3.30;2.97;;;23.50;1.40;;;26.44;59.47;94966.21;610845;226;32067;-71
2021/07/31 10:44:19;;;;;;;3.85;3.55;;;24.80;1.40;;;27.70;55.10;94963.49;645461;216;31974;-71
2021/07/31 10:47:18;;;;;;;3.30;2.80;;;25.70;1.40;;;29.05;50.67;94966.30;647329;212;31602;-72
2021/07/31 10:50:00;;;;;;;3.10;2.60;;;26.50;1.40;;;30.70;47.42;94963.27;647349;216;42185;-72
2021/07/31 10:52:51;;;;;;;2.70;2.50;;;27.30;1.40;;;31.91;45.65;94962.92;619621;226;42704;-72
2021/07/31 10:56:04;;;;;;;2.87;2.58;;;28.50;1.40;;;30.50;44.13;94958.36;646601;216;31531;-72
2021/07/31 10:59:12;;;;;;;3.45;2.83;;;25.20;1.40;;;28.74;51.56;94954.68;646700;216;31596;-70
2021/07/31 11:01:54;;;;;;;3.20;3.00;;;25.10;1.40;;;27.04;52.15;94963.91;646629;213;31538;-70
2021/07/31 11:04:53;;;;;;;3.20;2.90;;;24.20;1.40;;;26.21;54.07;94957.70;645457;212;31584;-69
2021/07/31 11:07:35;;;;;;;2.78;2.58;;;23.70;1.40;;;25.77;56.35;94963.23;618025;226;33059;-69
2021/07/31 11:10:29;;;;;;;2.80;2.60;;;23.60;1.40;;;26.20;55.18;94960.20;647308;212;32178;-70
2021/07/31 11:13:11;;;;;;;3.55;3.25;;;23.90;1.40;;;26.91;53.02;94958.66;646174;216;32134;-71
2021/07/31 11:16:26;;;;;;;3.50;3.20;;;24.30;1.40;;;26.98;54.14;94954.80;645330;212;31551;-70
2021/07/31 11:19:08;;;;;;;3.30;2.90;;;23.90;1.40;;;25.41;57.35;94951.92;646262;216;31588;-70
2021/07/31 11:21:52;;;;;;;3.30;3.00;;;22.90;1.40;;;24.79;59.76;94956.73;646969;216;31650;-70
2021/07/31 11:27:06;;;;;;;3.37;2.80;;;22.70;1.40;;;24.46;63.47;94947.84;647274;212;31843;-70
2021/07/31 11:29:53;;;;;;;2.92;2.40;;;22.50;1.40;;;23.94;58.42;94955.23;645081;216;32098;-71
2021/07/31 11:32:38;;;;;;;2.80;2.50;;;22.10;1.40;;;24.05;61.29;94957.17;645842;212;31613;-71
2021/07/31 11:35:57;;;;;;;3.00;2.50;;;22.50;1.40;;;24.71;59.07;94960.16;646841;216;31692;-71
2021/07/31 11:38:45;;;;;;;2.60;2.40;;;22.70;1.40;;;24.72;58.69;94959.50;645447;212;31575;-71
2021/07/31 11:41:37;;;;;;;2.72;2.42;;;22.70;1.40;;;24.82;58.86;94960.97;634857;212;32021;-72
2021/07/31 11:44:26;;;;;;;2.50;2.30;;;22.70;1.40;;;23.65;62.20;94965.20;620194;225;32567;-71
2021/07/31 11:47:14;;;;;;;2.80;2.50;;;22.00;1.40;;;23.53;64.02;94973.01;642743;218;31577;-72
2021/07/31 11:49:56;;;;;;;2.80;2.60;;;21.90;1.40;;;23.43;65.98;94966.27;646538;212;31556;-71
2021/07/31 11:52:38;;;;;;;3.12;2.80;;;21.90;1.40;;;23.11;65.98;94972.09;646876;216;31560;-71
2021/07/31 11:55:24;;;;;;;2.60;2.40;;;21.60;1.40;;;23.12;67.00;94971.59;619069;223;32284;-71
2021/07/31 11:58:12;;;;;;;3.00;2.80;;;21.60;1.40;;;23.25;68.11;94972.05;646290;216;32134;-71
2021/07/31 12:00:54;;;;;;;2.72;2.50;;;21.60;1.40;;;23.29;65.30;94962.95;645821;216;32148;-71
2021/07/31 12:03:45;;;;;;;3.67;2.60;;;21.80;1.40;;;23.86;65.28;94956.06;641453;217;34491;-70
2021/07/31 12:06:30;;;;;;;2.78;2.55;;;22.40;1.40;;;24.49;64.32;94954.30;646446;212;31568;-71
2021/07/31 12:09:24;;;;;;;3.10;2.58;;;23.00;1.40;;;24.85;59.86;94953.98;647284;213;32005;-71
2021/07/31 12:12:06;;;;;;;3.17;2.60;;;23.00;1.40;;;24.35;61.45;94951.45;633301;217;31688;-71
2021/07/31 12:14:48;;;;;;;3.08;2.60;;;22.70;1.40;;;24.47;62.98;94955.89;646558;212;31556;-71